Time;durP1;ratioP1;P1;durP2;ratioP2;P2;SDS_P1;SDS_P2;PMS_P1;PMS_P2;Temp;Humidity;BMP_temperature;BMP_pressure;BME280_temperature;BME280_humidity;BME280_pressure;Samples;Min_cycle;Max_cycle;Signal;HPM_P1;HPM_P2
2023/03/15 00:01:23;;;;;;;10.10;1.50;;;6.30;99.90;;;;;;5106639;28;20087;-86
2023/03/15 00:03:49;;;;;;;12.05;1.90;;;;;;;;;;5090566;28;20043;-88
2023/03/15 00:06:15;;;;;;;10.52;1.20;;;;;;;;;;5106769;28;20047;-86
2023/03/15 00:08:46;;;;;;;14.90;1.23;;;2.60;99.90;;;;;;5090533;28;20046;-86
2023/03/15 00:11:13;;;;;;;8.82;1.38;;;6.60;99.90;;;;;;5094985;28;20479;-86
2023/03/15 00:13:38;;;;;;;10.13;1.40;;;2.60;99.90;;;;;;5093891;28;20510;-86
2023/03/15 00:16:04;;;;;;;7.80;1.80;;;2.50;99.90;;;;;;5110768;28;20035;-89
2023/03/15 00:18:33;;;;;;;9.10;2.50;;;;;;;;;;5112925;28;20128;-86
2023/03/15 00:20:59;;;;;;;8.32;1.10;;;2.50;99.90;;;;;;5109923;28;20047;-86
2023/03/15 00:23:25;;;;;;;8.23;1.27;;;;;;;;;;5111634;28;20036;-86
2023/03/15 00:25:52;;;;;;;8.77;1.20;;;2.50;99.90;;;;;;5091081;28;20098;-89
2023/03/15 00:28:18;;;;;;;15.77;2.17;;;;;;;;;;5110290;28;20079;-88
2023/03/15 00:30:45;;;;;;;12.00;1.48;;;;;;;;;;5112197;28;20046;-88
2023/03/15 00:33:12;;;;;;;10.15;1.50;;;2.40;99.90;;;;;;5110362;28;20035;-85
2023/03/15 00:35:44;;;;;;;15.98;1.45;;;2.40;99.90;;;;;;5111463;28;20036;-89
2023/03/15 00:38:10;;;;;;;13.68;1.55;;;;;;;;;;5093620;28;20035;-88
2023/03/15 00:40:37;;;;;;;7.45;1.45;;;2.40;99.90;;;;;;5110852;28;20036;-88
2023/03/15 00:43:16;;;;;;;7.10;1.85;;;2.20;99.90;;;;;;5110162;28;20054;-89
2023/03/15 00:45:58;;;;;;;8.38;1.45;;;;;;;;;;5106782;28;20067;-86
2023/03/15 00:48:26;;;;;;;9.10;1.05;;;2.30;99.90;;;;;;5109786;28;20047;-87
2023/03/15 00:51:05;;;;;;;8.00;0.80;;;2.30;99.90;;;;;;5094003;28;20047;-86
2023/03/15 00:53:32;;;;;;;9.43;0.75;;;2.30;99.90;;;;;;5110741;28;20052;-86
2023/03/15 00:55:58;;;;;;;7.18;1.25;;;2.20;99.90;;;;;;5092753;28;20547;-87
2023/03/15 00:58:24;;;;;;;7.70;1.20;;;;;;;;;;5110657;28;20039;-86
2023/03/15 01:00:50;;;;;;;5.15;0.88;;;2.20;99.90;;;;;;5110434;28;20071;-87
2023/03/15 01:03:16;;;;;;;9.02;1.20;;;2.30;99.90;;;;;;5109586;28;20464;-86
2023/03/15 01:05:42;;;;;;;9.68;0.98;;;;;;;;;;5093562;28;20122;-86
2023/03/15 01:08:08;;;;;;;9.38;1.70;;;2.10;99.90;;;;;;5110134;28;20053;-86
2023/03/15 01:10:34;;;;;;;4.97;0.93;;;2.10;99.90;;;;;;5110609;28;20039;-86
2023/03/15 01:13:03;;;;;;;7.88;0.50;;;;;;;;;;5110453;28;20047;-87
2023/03/15 01:15:29;;;;;;;9.75;0.88;;;;;;;;;;5093488;28;20327;-86
2023/03/15 01:17:56;;;;;;;6.60;0.70;;;;;;;;;;5092602;28;20464;-86
2023/03/15 01:20:22;;;;;;;3.88;0.60;;;2.20;99.90;;;;;;5109176;28;20028;-86
2023/03/15 01:22:48;;;;;;;12.82;0.95;;;2.20;99.90;;;;;;5094117;28;20083;-86
2023/03/15 01:25:14;;;;;;;6.93;0.75;;;5.60;99.90;;;;;;5109138;28;20501;-87
2023/03/15 01:27:39;;;;;;;7.85;0.93;;;2.10;99.90;;;;;;5111454;28;20081;-86
2023/03/15 01:30:06;;;;;;;4.75;0.70;;;2.10;99.90;;;;;;5091754;28;20457;-86
2023/03/15 01:32:32;;;;;;;4.18;0.85;;;2.20;99.90;;;;;;5110133;28;20118;-86
2023/03/15 01:34:58;;;;;;;5.28;0.65;;;;;;;;;;5109583;28;20400;-86
2023/03/15 01:37:25;;;;;;;9.18;0.75;;;2.10;99.90;;;;;;5092003;28;20557;-86
2023/03/15 01:39:51;;;;;;;5.07;0.73;;;;;;;;;;5092377;28;20036;-86
2023/03/15 01:42:17;;;;;;;12.80;1.85;;;;;;;;;;5092515;28;20047;-87
2023/03/15 01:44:53;;;;;;;12.82;1.48;;;2.10;99.90;;;;;;5109209;28;20034;-86
2023/03/15 01:47:19;;;;;;;10.50;1.25;;;1.70;99.90;;;;;;5118219;27;20086;-87
2023/03/15 01:49:50;;;;;;;7.60;1.55;;;2.10;99.90;;;;;;5143849;27;20052;-87
2023/03/15 01:52:27;;;;;;;9.05;0.95;;;2.10;99.90;;;;;;5083425;28;20036;-86
2023/03/15 01:54:58;;;;;;;8.73;0.65;;;2.10;99.90;;;;;;5092606;28;20081;-86
2023/03/15 01:57:35;;;;;;;7.40;1.02;;;2.00;99.90;;;;;;5092616;28;20063;-86
2023/03/15 02:00:09;;;;;;;7.90;1.10;;;;;;;;;;5108494;28;20323;-86
2023/03/15 02:02:35;;;;;;;7.05;1.17;;;2.00;99.90;;;;;;5111607;28;20096;-86
2023/03/15 02:05:11;;;;;;;8.85;1.10;;;2.00;99.90;;;;;;5092316;28;20067;-87
2023/03/15 02:07:48;;;;;;;4.65;0.77;;;2.00;99.90;;;;;;5092138;28;20051;-87
2023/03/15 02:10:20;;;;;;;8.55;0.73;;;5.50;99.90;;;;;;5109707;28;20044;-85
2023/03/15 02:12:51;;;;;;;11.45;1.02;;;2.00;99.90;;;;;;5109829;28;20042;-87
2023/03/15 02:15:17;;;;;;;5.25;0.68;;;;;;;;;;5108805;28;20066;-89
2023/03/15 02:17:45;;;;;;;10.02;0.43;;;1.90;99.90;;;;;;5109190;28;20046;-86
2023/03/15 02:20:11;;;;;;;9.88;1.30;;;;;;;;;;5109141;28;20075;-86
2023/03/15 02:22:54;;;;;;;5.95;1.15;;;1.90;99.90;;;;;;5109409;28;20044;-87
2023/03/15 02:25:43;;;;;;;13.10;0.75;;;1.90;99.90;;;;;;5102416;28;20074;-86
2023/03/15 02:28:11;;;;;;;10.55;1.10;;;1.80;99.90;;;;;;5109127;28;20047;-86
2023/03/15 02:30:37;;;;;;;9.18;0.90;;;;;;;;;;5108746;28;20042;-86
2023/03/15 02:33:07;;;;;;;4.53;0.80;;;1.80;99.90;;;;;;5107753;28;20138;-86
2023/03/15 02:35:33;;;;;;;8.48;0.80;;;;;;;;;;5107981;28;20086;-86
2023/03/15 02:38:01;;;;;;;7.00;0.80;;;;;;;;;;5091520;28;20417;-86
2023/03/15 02:40:28;;;;;;;11.52;1.15;;;1.80;99.90;;;;;;5109114;28;20047;-86
2023/03/15 02:42:59;;;;;;;7.15;1.13;;;1.80;99.90;;;;;;5109741;28;20059;-86
2023/03/15 02:45:26;;;;;;;8.65;0.85;;;1.80;99.90;;;;;;5110176;28;20122;-87
2023/03/15 02:47:52;;;;;;;8.20;0.65;;;1.70;99.90;;;;;;5107784;28;20510;-88
2023/03/15 02:50:18;;;;;;;7.20;0.73;;;;;;;;;;5082759;28;20049;-87
2023/03/15 02:52:44;;;;;;;3.03;0.75;;;1.70;99.90;;;;;;5091447;28;20402;-86
2023/03/15 02:55:10;;;;;;;7.78;0.85;;;1.60;99.90;;;;;;5107405;28;20047;-86
2023/03/15 02:57:36;;;;;;;4.30;0.68;;;1.60;99.90;;;;;;5109692;28;20502;-86
2023/03/15 03:00:12;;;;;;;4.38;0.55;;;5.50;99.90;;;;;;5107867;28;20043;-86
2023/03/15 03:02:38;;;;;;;8.65;0.82;;;1.20;99.90;;;;;;5109079;28;20036;-87
2023/03/15 03:05:04;;;;;;;10.68;1.13;;;4.00;99.90;;;;;;5107899;28;20343;-86
2023/03/15 03:07:29;;;;;;;7.53;0.75;;;1.60;99.90;;;;;;5108429;28;20119;-86
2023/03/15 03:09:55;;;;;;;9.23;0.75;;;1.50;99.90;;;;;;5107114;28;20122;-85
2023/03/15 03:12:21;;;;;;;1.77;0.50;;;1.10;99.90;;;;;;5108127;28;20047;-87
2023/03/15 03:14:47;;;;;;;5.90;0.55;;;3.30;99.90;;;;;;5109539;28;20032;-86
2023/03/15 03:17:13;;;;;;;3.85;0.60;;;1.50;99.90;;;;;;5089937;28;20075;-88
2023/03/15 03:19:38;;;;;;;6.43;0.63;;;1.10;99.90;;;;;;5109214;28;20039;-87
2023/03/15 03:22:04;;;;;;;3.70;1.00;;;;;;;;;;5109280;28;20035;-87
2023/03/15 03:24:33;;;;;;;10.18;0.93;;;;;;;;;;5090493;28;20118;-87
2023/03/15 03:26:59;;;;;;;4.47;0.70;;;;;;;;;;5107740;28;20505;-86
2023/03/15 03:29:26;;;;;;;7.50;0.63;;;;;;;;;;5108740;28;20039;-86
2023/03/15 03:31:52;;;;;;;9.45;0.93;;;;;;;;;;5108702;28;20128;-86
2023/03/15 03:34:18;;;;;;;2.35;0.43;;;1.20;99.90;;;;;;5090760;28;20126;-87
2023/03/15 03:36:44;;;;;;;4.13;0.52;;;1.30;99.90;;;;;;5108639;28;20040;-86
2023/03/15 03:39:10;;;;;;;5.82;0.60;;;5.40;99.90;;;;;;5089998;28;20043;-86
2023/03/15 03:41:36;;;;;;;9.40;0.60;;;1.30;99.90;;;;;;5109104;28;20036;-86
2023/03/15 03:44:02;;;;;;;7.80;0.57;;;4.90;99.90;;;;;;5106512;28;20043;-87
2023/03/15 03:46:28;;;;;;;9.82;1.48;;;;;;;;;;5109108;28;20039;-86
2023/03/15 03:48:54;;;;;;;3.53;0.63;;;1.30;99.90;;;;;;5107005;28;20055;-87
2023/03/15 03:51:20;;;;;;;10.35;0.70;;;1.30;99.90;;;;;;5089730;28;20078;-86
2023/03/15 03:53:46;;;;;;;8.70;1.55;;;1.20;99.90;;;;;;5107668;28;20065;-85
2023/03/15 03:56:12;;;;;;;6.53;1.15;;;;;;;;;;5108355;28;20039;-86
2023/03/15 03:58:38;;;;;;;4.75;0.63;;;;;;;;;;5107209;28;20040;-86
2023/03/15 04:01:04;;;;;;;3.58;1.13;;;;;;;;;;5108843;28;20047;-87
2023/03/15 04:03:31;;;;;;;16.30;1.35;;;;;;;;;;5090782;28;20047;-86
2023/03/15 04:05:58;;;;;;;12.30;1.13;;;1.20;99.90;;;;;;5106817;28;20036;-86
2023/03/15 04:08:25;;;;;;;6.05;0.80;;;1.20;99.90;;;;;;5108294;28;20043;-86
2023/03/15 04:10:55;;;;;;;12.35;2.03;;;1.10;99.90;;;;;;5108883;28;20039;-86
2023/03/15 04:13:23;;;;;;;11.55;1.80;;;1.20;99.90;;;;;;5099764;28;20031;-86
2023/03/15 04:15:49;;;;;;;8.18;1.63;;;;;;;;;;5107692;28;20079;-87
2023/03/15 04:18:15;;;;;;;8.95;0.93;;;;;;;;;;5108330;28;20050;-86
2023/03/15 04:20:45;;;;;;;5.15;0.95;;;;;;;;;;5107961;28;20042;-85
2023/03/15 04:23:13;;;;;;;6.47;0.50;;;1.10;99.90;;;;;;5108328;28;20119;-87
2023/03/15 04:25:39;;;;;;;10.77;0.90;;;1.10;99.90;;;;;;5108756;28;20031;-86
2023/03/15 04:28:09;;;;;;;7.82;0.63;;;;;;;;;;5105716;28;20118;-86
2023/03/15 04:30:35;;;;;;;6.43;0.60;;;1.10;99.90;;;;;;5106721;28;20081;-87
2023/03/15 04:33:02;;;;;;;6.00;0.65;;;;;;;;;;5105958;28;20051;-86
2023/03/15 04:35:36;;;;;;;5.72;0.70;;;1.10;99.90;;;;;;5108315;28;20495;-86
2023/03/15 04:38:03;;;;;;;5.80;1.40;;;1.00;99.90;;;;;;5090284;28;20549;-86
2023/03/15 04:40:33;;;;;;;5.97;0.60;;;1.00;99.90;;;;;;5108382;28;20043;-86
2023/03/15 04:43:01;;;;;;;3.30;0.47;;;5.10;99.90;;;;;;5107061;28;20044;-87
2023/03/15 04:45:32;;;;;;;6.55;0.93;;;1.00;99.90;;;;;;5107635;28;20200;-87
2023/03/15 04:48:00;;;;;;;10.75;2.60;;;1.00;99.90;;;;;;5089143;28;20517;-88
2023/03/15 04:50:27;;;;;;;11.25;1.15;;;0.90;99.90;;;;;;5106380;28;20039;-86
2023/03/15 04:52:53;;;;;;;7.70;0.55;;;;;;;;;;5108427;28;20479;-87
2023/03/15 04:55:19;;;;;;;4.65;0.60;;;;;;;;;;5097869;27;20483;-88
2023/03/15 04:57:45;;;;;;;8.48;0.98;;;;;;;;;;5112114;28;20043;-87
2023/03/15 05:00:12;;;;;;;13.20;1.08;;;0.90;99.90;;;;;;5110089;28;20044;-86
2023/03/15 05:02:40;;;;;;;12.20;0.93;;;1.50;99.90;;;;;;5110160;28;20047;-86
2023/03/15 05:05:09;;;;;;;8.75;0.95;;;;;;;;;;5111217;28;20084;-87
2023/03/15 05:07:35;;;;;;;12.02;1.00;;;0.90;99.90;;;;;;5093379;28;20410;-86
2023/03/15 05:10:01;;;;;;;5.00;0.52;;;;;;;;;;5110651;28;20036;-87
2023/03/15 05:12:27;;;;;;;19.58;1.27;;;0.80;99.90;;;;;;5093690;28;20188;-87
2023/03/15 05:14:53;;;;;;;7.40;0.85;;;0.80;99.90;;;;;;5110080;28;20122;-86
2023/03/15 05:17:21;;;;;;;4.63;0.65;;;;;;;;;;5109526;28;20130;-87
2023/03/15 05:19:50;;;;;;;5.43;0.60;;;0.80;99.90;;;;;;5111586;28;20103;-87
2023/03/15 05:22:16;;;;;;;3.78;0.60;;;;;;;;;;5109072;28;20038;-85
2023/03/15 05:24:43;;;;;;;4.00;0.65;;;2.00;99.90;;;;;;5110491;28;20440;-87
2023/03/15 05:27:10;;;;;;;7.03;0.88;;;;;;;;;;5109872;28;20140;-87
2023/03/15 05:29:36;;;;;;;4.85;0.70;;;;;;;;;;5111165;28;20054;-86
2023/03/15 05:32:03;;;;;;;6.40;0.88;;;0.60;99.90;;;;;;5111060;28;20035;-86
2023/03/15 05:34:31;;;;;;;6.53;0.85;;;0.70;99.90;;;;;;5111204;27;20418;-86
2023/03/15 05:36:58;;;;;;;9.52;1.25;;;0.60;99.90;;;;;;5109068;28;20475;-86
2023/03/15 05:39:24;;;;;;;8.57;0.90;;;;;;;;;;5109274;28;20134;-87
2023/03/15 05:41:50;;;;;;;7.05;1.20;;;;;;;;;;5092809;28;20036;-86
2023/03/15 05:44:16;;;;;;;8.73;0.93;;;0.80;99.90;;;;;;5091511;28;20457;-86
2023/03/15 05:46:42;;;;;;;4.55;0.65;;;;;;;;;;5093214;28;20027;-87
2023/03/15 05:49:09;;;;;;;5.25;0.60;;;;;;;;;;5108651;28;20066;-86
2023/03/15 05:51:35;;;;;;;6.15;1.30;;;;;;;;;;5092033;28;20043;-86
2023/03/15 05:54:04;;;;;;;7.97;0.73;;;;;;;;;;5092621;28;20576;-86
2023/03/15 05:56:30;;;;;;;10.18;1.08;;;0.80;99.90;;;;;;5093032;28;20097;-86
2023/03/15 05:58:56;;;;;;;7.00;0.98;;;;;;;;;;5108082;28;20483;-86
2023/03/15 06:01:22;;;;;;;9.25;1.38;;;;;;;;;;5109163;28;20028;-86
2023/03/15 06:03:47;;;;;;;3.70;0.32;;;0.80;99.90;;;;;;5109362;28;20039;-86
2023/03/15 06:06:13;;;;;;;4.85;0.45;;;0.80;99.90;;;;;;5108092;28;20058;-86
2023/03/15 06:08:39;;;;;;;6.13;0.88;;;0.90;99.90;;;;;;5109927;28;20456;-86
2023/03/15 06:11:05;;;;;;;2.67;0.50;;;;;;;;;;5091708;28;20444;-86
2023/03/15 06:13:32;;;;;;;7.72;0.70;;;;;;;;;;5108874;28;20077;-86
2023/03/15 06:15:57;;;;;;;6.05;0.85;;;0.80;99.90;;;;;;5109139;28;20035;-86
2023/03/15 06:18:23;;;;;;;5.80;0.70;;;0.80;99.90;;;;;;5109302;28;20146;-86
2023/03/15 06:20:49;;;;;;;3.08;0.45;;;;;;;;;;5110317;28;20039;-86
2023/03/15 06:23:15;;;;;;;6.40;0.80;;;;;;;;;;5109628;28;20043;-86
2023/03/15 06:25:41;;;;;;;6.03;0.57;;;;;;;;;;5108563;28;20046;-87
2023/03/15 06:28:07;;;;;;;15.68;4.90;;;;;;;;;;5109439;28;20487;-86
2023/03/15 06:30:34;;;;;;;6.95;0.75;;;0.70;99.90;;;;;;5109083;28;20043;-86
2023/03/15 06:33:00;;;;;;;3.40;0.40;;;0.70;99.90;;;;;;5109636;28;20477;-86
2023/03/15 06:35:26;;;;;;;6.95;0.75;;;;;;;;;;5109861;28;20127;-86
2023/03/15 06:37:51;;;;;;;4.50;0.75;;;0.80;99.90;;;;;;5110338;28;20031;-86
2023/03/15 06:40:18;;;;;;;2.33;0.60;;;;;;;;;;5090347;28;20100;-86
2023/03/15 06:42:44;;;;;;;2.25;0.63;;;;;;;;;;5110110;28;20050;-86
2023/03/15 06:45:10;;;;;;;7.72;1.23;;;;;;;;;;5091258;28;20035;-86
2023/03/15 06:47:37;;;;;;;5.28;0.65;;;;;;;;;;5107779;28;20491;-86
2023/03/15 06:50:03;;;;;;;3.65;0.70;;;0.70;99.90;;;;;;5107804;28;20047;-86
2023/03/15 06:52:32;;;;;;;3.40;0.65;;;;;;;;;;5109860;28;20055;-86
2023/03/15 06:55:01;;;;;;;3.30;0.40;;;;;;;;;;5108925;28;20048;-86
2023/03/15 06:57:27;;;;;;;4.10;0.50;;;;;;;;;;5101285;28;20019;-86
2023/03/15 06:59:55;;;;;;;5.22;0.95;;;;;;;;;;5109448;28;20075;-87
2023/03/15 07:02:39;;;;;;;8.73;2.20;;;;;;;;;;5107936;28;20042;-87
2023/03/15 07:05:06;;;;;;;5.93;0.90;;;0.80;99.90;;;;;;5106970;28;20047;-86
2023/03/15 07:07:32;;;;;;;8.27;0.93;;;;;;;;;;5090885;28;20031;-86
2023/03/15 07:10:01;;;;;;;2.45;0.63;;;;;;;;;;5109225;28;20051;-87
2023/03/15 07:12:27;;;;;;;6.50;0.63;;;;;;;;;;5099753;28;20031;-87
2023/03/15 07:14:54;;;;;;;8.75;1.33;;;1.10;99.90;;;;;;5112621;27;20847;-86
2023/03/15 07:17:20;;;;;;;11.77;1.23;;;;;;;;;;5110637;27;20092;-86
2023/03/15 07:19:46;;;;;;;7.15;0.95;;;;;;;;;;5113655;27;20039;-86
2023/03/15 07:22:12;;;;;;;9.20;1.08;;;1.70;99.90;;;;;;5106928;28;20430;-86
2023/03/15 07:24:38;;;;;;;8.35;1.15;;;;;;;;;;5108105;28;20036;-86
2023/03/15 07:27:04;;;;;;;8.30;1.27;;;;;;;;;;5090603;28;20046;-86
2023/03/15 07:29:30;;;;;;;7.07;1.13;;;;;;;;;;5106988;28;20043;-85
2023/03/15 07:31:57;;;;;;;6.97;1.17;;;;;;;;;;5107708;28;20039;-87
2023/03/15 07:34:23;;;;;;;10.30;0.95;;;;;;;;;;5106104;28;20456;-86
2023/03/15 07:36:49;;;;;;;6.07;0.98;;;;;;;;;;5090829;28;20222;-87
2023/03/15 07:39:15;;;;;;;9.13;1.50;;;1.60;99.90;;;;;;5089815;28;20047;-86
2023/03/15 07:41:41;;;;;;;7.93;1.40;;;;;;;;;;5107269;28;20038;-86
2023/03/15 07:44:07;;;;;;;7.63;0.98;;;;;;;;;;5090034;28;20047;-86
2023/03/15 07:46:33;;;;;;;7.60;1.30;;;;;;;;;;5090883;28;20526;-86
2023/03/15 07:48:59;;;;;;;6.60;1.25;;;1.80;99.90;;;;;;5089307;28;20056;-87
2023/03/15 07:51:25;;;;;;;6.07;0.80;;;;;;;;;;5107266;28;20529;-86
2023/03/15 07:53:51;;;;;;;14.73;1.35;;;;;;;;;;5107770;28;20047;-87
2023/03/15 07:56:17;;;;;;;7.03;1.00;;;;;;;;;;5106972;28;20070;-87
2023/03/15 07:58:43;;;;;;;6.53;1.10;;;;;;;;;;5107150;28;20372;-89
2023/03/15 08:01:09;;;;;;;8.25;1.05;;;2.30;99.90;;;;;;5106767;28;20434;-86
2023/03/15 08:03:37;;;;;;;8.88;1.25;;;2.40;99.90;;;;;;5090538;28;20043;-85
2023/03/15 08:06:03;;;;;;;8.65;1.30;;;6.50;99.90;;;;;;5090290;28;20043;-87
2023/03/15 08:08:29;;;;;;;6.43;1.00;;;2.60;99.90;;;;;;5081628;28;20532;-85
2023/03/15 08:10:55;;;;;;;10.27;1.73;;;5.70;99.90;;;;;;5105574;28;20047;-85
2023/03/15 08:13:23;;;;;;;13.85;1.50;;;;;;;;;;5108860;28;20075;-82
2023/03/15 08:15:48;;;;;;;8.13;1.63;;;2.80;99.90;;;;;;5103725;28;20048;-81
2023/03/15 08:18:14;;;;;;;8.45;1.95;;;3.10;99.90;;;;;;5102885;28;20108;-85
2023/03/15 08:20:40;;;;;;;6.53;1.05;;;;;;;;;;5107799;28;20042;-86
2023/03/15 08:23:07;;;;;;;8.82;1.08;;;3.00;99.90;;;;;;5088108;28;20050;-86
2023/03/15 08:25:35;;;;;;;6.55;1.08;;;3.00;99.90;;;;;;5106518;28;20081;-86
2023/03/15 08:28:01;;;;;;;7.88;1.30;;;;;;;;;;5105544;28;20035;-86
2023/03/15 08:30:27;;;;;;;8.80;1.73;;;;;;;;;;5107346;27;20448;-87
2023/03/15 08:32:53;;;;;;;7.72;1.05;;;;;;;;;;5109547;28;20043;-86
2023/03/15 08:35:21;;;;;;;9.07;1.10;;;3.40;99.90;;;;;;5110868;28;20043;-86
2023/03/15 08:37:47;;;;;;;5.18;0.80;;;;;;;;;;5107724;28;20472;-86
2023/03/15 08:40:23;;;;;;;11.00;1.25;;;3.60;99.90;;;;;;5109014;28;20408;-85
2023/03/15 08:42:49;;;;;;;4.22;0.80;;;;;;;;;;5092142;28;20043;-86
2023/03/15 08:45:15;;;;;;;4.68;0.80;;;;;;;;;;5109871;28;20081;-86
2023/03/15 08:47:44;;;;;;;5.43;0.80;;;;;;;;;;5103633;27;20139;-87
2023/03/15 08:50:14;;;;;;;6.38;1.08;;;3.90;99.90;;;;;;5108416;28;20051;-87
2023/03/15 08:52:41;;;;;;;8.07;1.08;;;3.80;99.90;;;;;;5110378;28;20512;-86
2023/03/15 08:55:07;;;;;;;6.10;0.90;;;6.10;99.90;;;;;;5110158;28;20101;-86
2023/03/15 08:57:33;;;;;;;6.50;0.80;;;;;;;;;;5111541;28;20042;-86
2023/03/15 09:00:00;;;;;;;4.30;0.47;;;4.10;99.90;;;;;;5105807;27;20411;-86
2023/03/15 09:02:27;;;;;;;9.10;0.70;;;;;;;;;;5109976;27;20069;-86
2023/03/15 09:04:54;;;;;;;7.43;0.52;;;;;;;;;;5108339;28;20614;-87
2023/03/15 09:07:20;;;;;;;4.18;0.50;;;4.30;99.90;;;;;;5092460;28;20043;-86
2023/03/15 09:09:47;;;;;;;6.78;0.55;;;;;;;;;;5107809;28;20043;-86
2023/03/15 09:12:16;;;;;;;5.82;1.00;;;;;;;;;;5106643;28;20047;-86
2023/03/15 09:14:42;;;;;;;10.07;0.75;;;4.40;99.90;;;;;;5104723;28;20042;-87
2023/03/15 09:17:08;;;;;;;4.57;0.60;;;8.90;99.90;;;;;;5110065;28;20035;-86
2023/03/15 09:19:34;;;;;;;5.30;0.70;;;;;;;;;;5102019;28;20034;-86
2023/03/15 09:22:01;;;;;;;5.25;0.70;;;;;;;;;;5111349;28;20443;-85
2023/03/15 09:24:27;;;;;;;5.15;0.95;;;;;;;;;;5110293;28;20031;-86
2023/03/15 09:26:53;;;;;;;7.38;0.60;;;;;;;;;;5111166;28;20036;-84
2023/03/15 09:29:18;;;;;;;7.25;0.93;;;4.80;99.90;;;;;;5109850;28;20051;-85
2023/03/15 09:31:44;;;;;;;6.22;0.85;;;;;;;;;;5110438;28;20571;-85
2023/03/15 09:34:11;;;;;;;8.65;0.68;;;5.00;99.90;;;;;;5092099;28;20039;-84
2023/03/15 09:36:37;;;;;;;5.30;0.47;;;8.60;99.90;;;;;;5093125;28;20403;-85
2023/03/15 09:39:03;;;;;;;5.88;1.48;;;9.50;99.90;;;;;;5108617;28;20078;-84
2023/03/15 09:41:38;;;;;;;7.90;0.90;;;8.90;99.90;;;;;;5091720;28;20042;-85
2023/03/15 09:44:37;;;;;;;5.63;0.82;;;8.70;99.90;;;;;;5092168;28;20043;-84
2023/03/15 09:47:15;;;;;;;5.70;0.68;;;5.20;99.90;;;;;;5106672;28;20073;-85
2023/03/15 09:50:04;;;;;;;5.88;1.00;;;8.80;99.90;;;;;;5101789;28;20058;-85
2023/03/15 09:52:45;;;;;;;6.05;1.13;;;5.40;99.90;;;;;;5109981;28;20075;-85
2023/03/15 09:55:26;;;;;;;6.68;1.80;;;5.40;99.90;;;;;;5091650;28;20051;-85
2023/03/15 09:58:02;;;;;;;9.35;1.17;;;5.40;99.90;;;;;;5092410;28;20036;-84
2023/03/15 10:00:43;;;;;;;6.07;0.45;;;5.50;99.90;;;;;;5092292;28;20039;-86
2023/03/15 10:03:41;;;;;;;7.43;1.05;;;5.60;99.90;;;;;;5108356;28;20497;-84
2023/03/15 10:06:14;;;;;;;8.18;0.90;;;5.60;99.90;;;;;;5108818;28;20092;-85
2023/03/15 10:08:39;;;;;;;10.65;1.13;;;3.40;99.90;;;;;;5108413;28;20075;-85
2023/03/15 10:11:28;;;;;;;9.63;0.73;;;5.60;99.90;;;;;;5110083;28;20093;-85
2023/03/15 10:14:12;;;;;;;9.48;1.38;;;5.80;99.90;;;;;;5105326;28;20505;-85
2023/03/15 10:16:44;;;;;;;5.72;0.93;;;5.80;99.90;;;;;;5101352;28;20085;-85
2023/03/15 10:19:32;;;;;;;8.48;0.60;;;5.90;99.90;;;;;;5091338;28;20151;-84
2023/03/15 10:22:28;;;;;;;4.70;0.85;;;5.80;99.90;;;;;;5108797;28;20700;-85
2023/03/15 10:24:59;;;;;;;6.60;0.80;;;5.90;99.90;;;;;;5104177;28;20040;-84
2023/03/15 10:27:41;;;;;;;7.40;0.77;;;5.90;99.90;;;;;;5110257;28;20072;-85
2023/03/15 10:30:18;;;;;;;6.43;0.50;;;5.90;99.90;;;;;;5090690;28;20044;-85
2023/03/15 10:32:53;;;;;;;6.32;0.95;;;9.30;99.90;;;;;;5110714;28;20119;-85
2023/03/15 10:35:20;;;;;;;7.13;0.55;;;6.00;99.90;;;;;;5108589;28;20036;-85
2023/03/15 10:37:46;;;;;;;5.47;0.80;;;4.60;99.90;;;;;;5109722;27;20044;-84
2023/03/15 10:40:16;;;;;;;5.90;0.90;;;6.20;99.90;;;;;;5091094;28;20409;-85
2023/03/15 10:42:45;;;;;;;6.28;1.10;;;6.00;99.90;;;;;;5108833;28;20044;-84
2023/03/15 10:45:22;;;;;;;6.30;0.80;;;10.10;99.90;;;;;;5090704;28;20518;-85
2023/03/15 10:47:48;;;;;;;5.43;1.08;;;10.00;99.90;;;;;;5108391;28;20118;-83
2023/03/15 10:50:30;;;;;;;8.93;0.80;;;10.20;99.90;;;;;;5090712;28;20521;-84
2023/03/15 10:52:58;;;;;;;5.50;0.63;;;6.50;99.90;;;;;;5107002;28;20082;-83
2023/03/15 10:55:38;;;;;;;9.07;1.45;;;6.30;99.90;;;;;;5108175;28;20724;-85
2023/03/15 10:58:30;;;;;;;5.13;1.25;;;9.00;99.90;;;;;;5108372;28;20040;-85
2023/03/15 11:01:08;;;;;;;3.55;0.73;;;8.40;99.90;;;;;;5079405;28;20047;-85
2023/03/15 11:03:36;;;;;;;6.90;0.90;;;6.70;99.90;;;;;;5083478;28;20047;-84
2023/03/15 11:06:03;;;;;;;7.03;0.90;;;;;;;;;;5090370;28;20047;-84
2023/03/15 11:08:40;;;;;;;3.72;0.70;;;6.80;99.90;;;;;;5109243;28;20051;-85
2023/03/15 11:11:07;;;;;;;4.15;0.70;;;6.90;99.90;;;;;;5107635;28;20042;-84
2023/03/15 11:13:38;;;;;;;8.32;0.98;;;6.80;99.90;;;;;;5134090;27;20386;-84
2023/03/15 11:16:19;;;;;;;3.90;1.23;;;6.80;99.90;;;;;;5108826;28;20675;-84
2023/03/15 11:19:02;;;;;;;8.75;1.30;;;6.90;99.90;;;;;;5102643;28;20336;-84
2023/03/15 11:21:33;;;;;;;6.22;0.65;;;6.90;99.90;;;;;;5091270;28;20044;-85
2023/03/15 11:24:02;;;;;;;4.38;0.75;;;6.80;99.90;;;;;;5108025;28;20086;-85
2023/03/15 11:26:33;;;;;;;5.82;1.15;;;6.80;99.90;;;;;;5107438;28;20039;-85
2023/03/15 11:29:03;;;;;;;5.72;1.00;;;10.00;99.90;;;;;;5106990;28;20079;-84
2023/03/15 11:31:30;;;;;;;6.78;0.80;;;7.10;99.90;;;;;;5108131;28;20046;-84
2023/03/15 11:33:57;;;;;;;5.93;1.08;;;7.20;99.90;;;;;;5089759;28;20059;-84
2023/03/15 11:36:29;;;;;;;6.43;1.48;;;7.00;99.90;;;;;;5090479;28;20067;-85
2023/03/15 11:38:57;;;;;;;8.02;1.05;;;6.90;99.90;;;;;;5090351;28;20043;-85
2023/03/15 11:41:41;;;;;;;3.95;0.57;;;7.20;99.90;;;;;;5106785;28;20546;-85
2023/03/15 11:44:36;;;;;;;4.10;0.55;;;7.30;99.90;;;;;;5107319;28;20175;-84
2023/03/15 11:47:29;;;;;;;3.28;0.70;;;10.50;99.90;;;;;;5090406;28;20042;-85
2023/03/15 11:49:58;;;;;;;7.05;0.82;;;7.50;99.90;;;;;;5101712;28;20370;-85
2023/03/15 11:52:28;;;;;;;8.80;1.02;;;7.70;99.90;;;;;;5107808;28;20056;-84
2023/03/15 11:55:00;;;;;;;3.65;0.55;;;10.30;99.90;;;;;;5106812;28;20042;-85
2023/03/15 11:57:36;;;;;;;4.07;0.65;;;11.30;99.90;;;;;;5107709;28;20082;-84
2023/03/15 12:00:19;;;;;;;4.35;0.70;;;7.70;99.90;;;;;;5090086;28;20590;-85
2023/03/15 12:02:51;;;;;;;6.65;0.90;;;7.90;99.90;;;;;;5083174;28;20035;-84
2023/03/15 12:05:49;;;;;;;5.40;1.02;;;7.90;99.90;;;;;;5093282;28;20550;-84
2023/03/15 12:08:23;;;;;;;8.45;1.05;;;7.90;99.90;;;;;;5110086;28;20491;-84
2023/03/15 12:10:50;;;;;;;4.63;0.70;;;8.70;99.90;;;;;;5112066;28;20490;-84
2023/03/15 12:13:22;;;;;;;8.68;1.80;;;7.90;98.30;;;;;;5093921;28;20080;-84
2023/03/15 12:15:49;;;;;;;6.00;0.82;;;7.80;98.60;;;;;;5093946;28;20031;-84
2023/03/15 12:18:18;;;;;;;9.73;0.98;;;5.40;99.00;;;;;;5093466;28;20059;-85
2023/03/15 12:20:56;;;;;;;3.50;0.98;;;9.00;99.90;;;;;;5094540;28;20040;-84
2023/03/15 12:23:33;;;;;;;6.80;0.90;;;9.80;99.90;;;;;;5112098;28;20380;-84
2023/03/15 12:26:02;;;;;;;6.07;1.20;;;9.40;99.90;;;;;;5111129;28;20074;-84
2023/03/15 12:28:36;;;;;;;7.60;0.80;;;8.40;99.90;;;;;;5112211;28;20043;-84
2023/03/15 12:31:13;;;;;;;4.95;0.50;;;11.70;99.30;;;;;;5112204;28;20127;-84
2023/03/15 12:33:48;;;;;;;6.30;1.25;;;8.30;98.10;;;;;;5086851;28;20039;-86
2023/03/15 12:36:25;;;;;;;3.70;0.43;;;8.30;99.70;;;;;;5093258;28;20525;-84
2023/03/15 12:39:01;;;;;;;5.75;0.90;;;11.10;99.30;;;;;;5094357;28;20047;-85
2023/03/15 12:41:39;;;;;;;3.80;0.80;;;12.40;97.70;;;;;;5112078;27;20309;-85
2023/03/15 12:44:24;;;;;;;5.65;1.17;;;8.40;97.60;;;;;;5110126;28;20051;-86
2023/03/15 12:46:49;;;;;;;3.63;0.63;;;8.50;97.40;;;;;;5104759;28;20074;-85
2023/03/15 12:49:21;;;;;;;5.97;1.05;;;11.60;99.00;;;;;;5109947;28;20097;-85
2023/03/15 12:52:00;;;;;;;5.35;0.90;;;12.50;97.80;;;;;;5111569;28;20322;-84
2023/03/15 12:54:42;;;;;;;3.88;0.80;;;8.70;97.70;;;;;;5093835;28;20416;-84
2023/03/15 12:57:23;;;;;;;6.35;0.55;;;8.70;97.60;;;;;;5111716;28;20039;-84
2023/03/15 13:00:05;;;;;;;4.82;0.70;;;9.20;96.10;;;;;;5105873;28;20050;-85
2023/03/15 13:02:44;;;;;;;7.97;1.48;;;8.80;97.50;;;;;;5109760;28;20066;-84
2023/03/15 13:05:24;;;;;;;6.70;1.17;;;11.20;97.70;;;;;;5109215;28;20510;-85
2023/03/15 13:07:57;;;;;;;7.97;0.73;;;8.90;97.80;;;;;;5093556;28;20082;-84
2023/03/15 13:10:55;;;;;;;5.40;0.90;;;10.90;98.20;;;;;;5110351;28;20047;-84
2023/03/15 13:13:36;;;;;;;7.00;1.02;;;9.10;97.70;;;;;;5101904;28;20406;-85
2023/03/15 13:16:25;;;;;;;9.23;1.00;;;10.20;98.40;;;;;;5110664;28;20503;-84
2023/03/15 13:19:03;;;;;;;11.05;1.77;;;9.20;98.90;;;;;;5103357;28;20047;-84
2023/03/15 13:21:52;;;;;;;6.18;0.90;;;9.20;99.90;;;;;;5110610;28;20047;-85
2023/03/15 13:24:31;;;;;;;9.70;1.02;;;9.20;99.50;;;;;;5088834;28;20048;-84
2023/03/15 13:27:22;;;;;;;4.53;0.90;;;12.60;99.90;;;;;;5111038;28;20092;-85
2023/03/15 13:29:49;;;;;;;7.13;1.10;;;11.80;99.80;;;;;;5103383;28;20078;-84
2023/03/15 13:32:17;;;;;;;5.15;0.82;;;10.50;99.60;;;;;;5109435;28;20054;-84
2023/03/15 13:34:45;;;;;;;4.88;0.68;;;11.50;98.60;;;;;;5092390;28;20416;-84
2023/03/15 13:37:30;;;;;;;4.65;0.60;;;11.70;95.80;;;;;;5092752;28;20027;-84
2023/03/15 13:40:02;;;;;;;6.57;0.80;;;10.80;94.40;;;;;;5109225;28;20464;-85
2023/03/15 13:42:28;;;;;;;3.13;0.68;;;9.60;93.40;;;;;;5109964;28;20547;-85